sensor_id;sensor_type;location;lat;lon;timestamp;pressure;altitude;pressure_sealevel;temperature;humidity
50684;BME280;36654;45.042;38.994;2023-02-19T00:01:26;100722.78;;;7.31;96.15
50684;BME280;36654;45.042;38.994;2023-02-19T00:03:56;100672.03;;;7.05;96.33
50684;BME280;36654;45.042;38.994;2023-02-19T00:06:24;100702.56;;;7.32;96.24
50684;BME280;36654;45.042;38.994;2023-02-19T00:08:50;100682.19;;;7.25;95.96
50684;BME280;36654;45.042;38.994;2023-02-19T00:11:26;100707.03;;;7.34;96.12
50684;BME280;36654;45.042;38.994;2023-02-19T00:13:53;100692.09;;;7.35;96.34
50684;BME280;36654;45.042;38.994;2023-02-19T00:16:25;100704.38;;;7.34;96.50
50684;BME280;36654;45.042;38.994;2023-02-19T00:18:51;100705.28;;;7.35;96.48
50684;BME280;36654;45.042;38.994;2023-02-19T00:21:18;100701.75;;;7.36;96.65
50684;BME280;36654;45.042;38.994;2023-02-19T00:23:57;100637.78;;;7.05;96.55
50684;BME280;36654;45.042;38.994;2023-02-19T00:26:24;100693.84;;;7.36;96.48
50684;BME280;36654;45.042;38.994;2023-02-19T00:28:52;100683.25;;;7.33;96.23
50684;BME280;36654;45.042;38.994;2023-02-19T00:31:21;100676.22;;;7.33;96.19
50684;BME280;36654;45.042;38.994;2023-02-19T00:33:48;100682.34;;;7.32;96.11
50684;BME280;36654;45.042;38.994;2023-02-19T00:36:15;100683.28;;;7.34;96.29
50684;BME280;36654;45.042;38.994;2023-02-19T00:38:42;100678.91;;;7.35;95.97
50684;BME280;36654;45.042;38.994;2023-02-19T00:41:09;100675.34;;;7.33;95.71
50684;BME280;36654;45.042;38.994;2023-02-19T00:44:05;100678.84;;;7.32;95.95
50684;BME280;36654;45.042;38.994;2023-02-19T00:46:40;100677.13;;;7.34;95.64
50684;BME280;36654;45.042;38.994;2023-02-19T00:49:07;100645.31;;;7.28;95.22
50684;BME280;36654;45.042;38.994;2023-02-19T00:51:37;100661.31;;;7.34;94.85
50684;BME280;36654;45.042;38.994;2023-02-19T00:54:04;100640.97;;;7.30;95.03
50684;BME280;36654;45.042;38.994;2023-02-19T00:56:30;100667.56;;;7.39;94.77
50684;BME280;36654;45.042;38.994;2023-02-19T00:58:55;100646.25;;;7.30;94.43
50684;BME280;36654;45.042;38.994;2023-02-19T01:01:21;100663.19;;;7.41;94.42
50684;BME280;36654;45.042;38.994;2023-02-19T01:03:47;100675.56;;;7.42;94.04
50684;BME280;36654;45.042;38.994;2023-02-19T01:06:15;100668.53;;;7.43;93.91
50684;BME280;36654;45.042;38.994;2023-02-19T01:08:41;100671.97;;;7.40;93.51
50684;BME280;36654;45.042;38.994;2023-02-19T01:11:09;100609.84;;;7.13;93.55
50684;BME280;36654;45.042;38.994;2023-02-19T01:13:35;100653.47;;;7.37;93.09
50684;BME280;36654;45.042;38.994;2023-02-19T01:18:33;100645.75;;;7.46;93.01
50684;BME280;36654;45.042;38.994;2023-02-19T01:20:59;100647.38;;;7.41;92.90
50684;BME280;36654;45.042;38.994;2023-02-19T01:23:24;100597.59;;;7.16;92.75
50684;BME280;36654;45.042;38.994;2023-02-19T01:25:50;100647.44;;;7.43;92.54
50684;BME280;36654;45.042;38.994;2023-02-19T01:28:16;100648.41;;;7.48;92.44
50684;BME280;36654;45.042;38.994;2023-02-19T01:30:41;100648.41;;;7.46;92.06
50684;BME280;36654;45.042;38.994;2023-02-19T01:33:07;100644.13;;;7.51;91.52
50684;BME280;36654;45.042;38.994;2023-02-19T01:35:37;100592.59;;;7.28;91.30
50684;BME280;36654;45.042;38.994;2023-02-19T01:38:03;100642.22;;;7.46;91.17
50684;BME280;36654;45.042;38.994;2023-02-19T01:40:29;100640.59;;;7.52;90.76
50684;BME280;36654;45.042;38.994;2023-02-19T01:42:54;100652.94;;;7.53;90.57
50684;BME280;36654;45.042;38.994;2023-02-19T01:45:24;100638.91;;;7.56;90.58
50684;BME280;36654;45.042;38.994;2023-02-19T01:50:27;100627.31;;;7.46;90.17
50684;BME280;36654;45.042;38.994;2023-02-19T01:52:53;100661.88;;;7.60;90.22
50684;BME280;36654;45.042;38.994;2023-02-19T01:55:18;100606.81;;;7.34;89.34
50684;BME280;36654;45.042;38.994;2023-02-19T01:57:46;100650.44;;;7.60;89.56
50684;BME280;36654;45.042;38.994;2023-02-19T02:00:16;100641.66;;;7.59;90.23
50684;BME280;36654;45.042;38.994;2023-02-19T02:02:46;100655.72;;;7.60;90.22
50684;BME280;36654;45.042;38.994;2023-02-19T02:06:05;100651.38;;;7.62;90.17
50684;BME280;36654;45.042;38.994;2023-02-19T02:08:05;100654.78;;;7.57;90.20
50684;BME280;36654;45.042;38.994;2023-02-19T02:10:50;100646.72;;;7.50;89.98
50684;BME280;36654;45.042;38.994;2023-02-19T02:13:16;100667.09;;;7.57;89.62
50684;BME280;36654;45.042;38.994;2023-02-19T02:16:12;100655.78;;;7.63;89.97
50684;BME280;36654;45.042;38.994;2023-02-19T02:21:28;100673.31;;;7.61;90.14
50684;BME280;36654;45.042;38.994;2023-02-19T02:29:30;100681.94;;;7.53;90.91
50684;BME280;36654;45.042;38.994;2023-02-19T02:32:11;100673.09;;;7.50;91.35
50684;BME280;36654;45.042;38.994;2023-02-19T02:35:08;100671.16;;;7.43;90.71
50684;BME280;36654;45.042;38.994;2023-02-19T02:37:38;100676.97;;;7.28;89.63
50684;BME280;36654;45.042;38.994;2023-02-19T02:40:06;100680.31;;;7.21;89.17
50684;BME280;36654;45.042;38.994;2023-02-19T02:42:33;100697.75;;;7.16;89.23
50684;BME280;36654;45.042;38.994;2023-02-19T02:45:24;100693.13;;;7.05;89.22
50684;BME280;36654;45.042;38.994;2023-02-19T02:48:04;100674.59;;;7.02;89.08
50684;BME280;36654;45.042;38.994;2023-02-19T02:50:40;100658.72;;;6.99;89.20
50684;BME280;36654;45.042;38.994;2023-02-19T02:53:12;100675.31;;;6.95;89.08
50684;BME280;36654;45.042;38.994;2023-02-19T02:55:57;100649.69;;;6.89;88.82
50684;BME280;36654;45.042;38.994;2023-02-19T02:58:25;100639.66;;;6.75;89.33
50684;BME280;36654;45.042;38.994;2023-02-19T03:01:00;100654.84;;;6.85;88.58
50684;BME280;36654;45.042;38.994;2023-02-19T03:03:47;100677.69;;;6.84;88.45
50684;BME280;36654;45.042;38.994;2023-02-19T03:06:16;100653.03;;;6.84;87.95
50684;BME280;36654;45.042;38.994;2023-02-19T03:11:18;100603.03;;;6.49;87.30
50684;BME280;36654;45.042;38.994;2023-02-19T03:14:13;100651.16;;;6.78;86.39
50684;BME280;36654;45.042;38.994;2023-02-19T03:17:09;100652.84;;;6.75;85.94
50684;BME280;36654;45.042;38.994;2023-02-19T03:19:57;100655.19;;;6.64;85.18
50684;BME280;36654;45.042;38.994;2023-02-19T03:22:29;100649.91;;;6.64;84.98
50684;BME280;36654;45.042;38.994;2023-02-19T03:25:00;100652.66;;;6.68;85.13
50684;BME280;36654;45.042;38.994;2023-02-19T03:27:48;100592.31;;;6.43;85.27
50684;BME280;36654;45.042;38.994;2023-02-19T03:30:21;100644.63;;;6.64;85.10
50684;BME280;36654;45.042;38.994;2023-02-19T03:33:13;100642.13;;;6.68;84.84
50684;BME280;36654;45.042;38.994;2023-02-19T03:35:46;100641.28;;;6.69;85.05
50684;BME280;36654;45.042;38.994;2023-02-19T03:38:38;100584.34;;;6.40;85.37
50684;BME280;36654;45.042;38.994;2023-02-19T03:42:09;100638.72;;;6.73;85.29
50684;BME280;36654;45.042;38.994;2023-02-19T03:44:12;100629.88;;;6.70;84.62
50684;BME280;36654;45.042;38.994;2023-02-19T03:49:28;100629.78;;;6.66;84.74
50684;BME280;36654;45.042;38.994;2023-02-19T03:52:03;100631.84;;;6.78;84.62
50684;BME280;36654;45.042;38.994;2023-02-19T03:54:50;100598.78;;;6.56;84.95
50684;BME280;36654;45.042;38.994;2023-02-19T03:57:32;100605.44;;;6.76;84.68
50684;BME280;36654;45.042;38.994;2023-02-19T04:02:41;100624.56;;;6.67;84.84
50684;BME280;36654;45.042;38.994;2023-02-19T04:05:29;100626.56;;;6.78;84.65
50684;BME280;36654;45.042;38.994;2023-02-19T04:08:05;100637.97;;;6.78;84.82
50684;BME280;36654;45.042;38.994;2023-02-19T04:10:34;100626.50;;;6.75;85.29
50684;BME280;36654;45.042;38.994;2023-02-19T04:13:24;100622.19;;;6.78;84.85
50684;BME280;36654;45.042;38.994;2023-02-19T04:15:53;100555.56;;;6.47;84.96
50684;BME280;36654;45.042;38.994;2023-02-19T04:18:24;100626.69;;;6.84;85.22
50684;BME280;36654;45.042;38.994;2023-02-19T04:20:51;100601.91;;;6.76;85.13
50684;BME280;36654;45.042;38.994;2023-02-19T04:23:22;100608.88;;;6.74;85.53
50684;BME280;36654;45.042;38.994;2023-02-19T04:25:52;100623.22;;;6.85;85.55
50684;BME280;36654;45.042;38.994;2023-02-19T04:28:19;100624.94;;;6.83;85.97
50684;BME280;36654;45.042;38.994;2023-02-19T04:30:45;100611.69;;;6.81;86.02
50684;BME280;36654;45.042;38.994;2023-02-19T04:33:11;100565.25;;;6.85;86.03
50684;BME280;36654;45.042;38.994;2023-02-19T04:35:37;100620.59;;;6.85;85.94
50684;BME280;36654;45.042;38.994;2023-02-19T04:38:02;100602.09;;;6.82;85.92
50684;BME280;36654;45.042;38.994;2023-02-19T04:40:28;100619.72;;;6.86;85.85
50684;BME280;36654;45.042;38.994;2023-02-19T04:42:53;100619.59;;;6.81;85.96
50684;BME280;36654;45.042;38.994;2023-02-19T04:45:19;100611.69;;;6.81;86.27
50684;BME280;36654;45.042;38.994;2023-02-19T04:47:44;100576.97;;;6.61;85.96
50684;BME280;36654;45.042;38.994;2023-02-19T04:50:10;100619.81;;;6.89;86.03
50684;BME280;36654;45.042;38.994;2023-02-19T04:52:36;100577.00;;;6.63;86.38
50684;BME280;36654;45.042;38.994;2023-02-19T04:55:01;100586.28;;;6.82;86.17
50684;BME280;36654;45.042;38.994;2023-02-19T04:57:27;100626.03;;;6.93;86.02
50684;BME280;36654;45.042;38.994;2023-02-19T04:59:52;100605.63;;;6.84;85.64
50684;BME280;36654;45.042;38.994;2023-02-19T05:02:18;100600.97;;;6.72;85.55
50684;BME280;36654;45.042;38.994;2023-02-19T05:04:43;100619.66;;;6.83;85.71
50684;BME280;36654;45.042;38.994;2023-02-19T05:07:09;100639.47;;;7.03;85.51
50684;BME280;36654;45.042;38.994;2023-02-19T05:09:35;100650.91;;;7.04;85.62
50684;BME280;36654;45.042;38.994;2023-02-19T05:12:00;100642.00;;;6.99;85.61
50684;BME280;36654;45.042;38.994;2023-02-19T05:14:26;100642.16;;;7.05;85.66
50684;BME280;36654;45.042;38.994;2023-02-19T05:16:51;100660.72;;;7.09;85.96
50684;BME280;36654;45.042;38.994;2023-02-19T05:19:17;100566.03;;;6.81;85.60
50684;BME280;36654;45.042;38.994;2023-02-19T05:21:42;100652.06;;;7.15;85.50
50684;BME280;36654;45.042;38.994;2023-02-19T05:24:08;100641.47;;;7.13;85.59
50684;BME280;36654;45.042;38.994;2023-02-19T05:26:34;100655.56;;;7.14;85.63
50684;BME280;36654;45.042;38.994;2023-02-19T05:28:59;100656.59;;;7.21;85.51
50684;BME280;36654;45.042;38.994;2023-02-19T05:31:25;100631.56;;;7.03;85.79
50684;BME280;36654;45.042;38.994;2023-02-19T05:33:51;100655.88;;;7.28;85.57
50684;BME280;36654;45.042;38.994;2023-02-19T05:36:18;100643.34;;;7.18;85.38
50684;BME280;36654;45.042;38.994;2023-02-19T05:38:44;100666.47;;;7.29;85.49
50684;BME280;36654;45.042;38.994;2023-02-19T05:41:24;100673.50;;;7.29;85.41
50684;BME280;36654;45.042;38.994;2023-02-19T05:43:50;100670.94;;;7.33;85.24
50684;BME280;36654;45.042;38.994;2023-02-19T05:46:19;100676.47;;;7.44;85.36
50684;BME280;36654;45.042;38.994;2023-02-19T05:48:46;100627.63;;;7.24;85.28
50684;BME280;36654;45.042;38.994;2023-02-19T05:51:14;100664.41;;;7.55;85.09
50684;BME280;36654;45.042;38.994;2023-02-19T05:53:41;100670.63;;;7.57;85.05
50684;BME280;36654;45.042;38.994;2023-02-19T05:56:20;100668.16;;;7.65;85.31
50684;BME280;36654;45.042;38.994;2023-02-19T05:58:48;100665.66;;;7.73;84.97
50684;BME280;36654;45.042;38.994;2023-02-19T06:01:19;100678.03;;;7.74;84.89
50684;BME280;36654;45.042;38.994;2023-02-19T06:03:45;100671.13;;;7.81;84.66
50684;BME280;36654;45.042;38.994;2023-02-19T06:06:17;100660.53;;;7.79;84.47
50684;BME280;36654;45.042;38.994;2023-02-19T06:08:43;100679.13;;;7.85;84.37
50684;BME280;36654;45.042;38.994;2023-02-19T06:11:09;100680.19;;;7.93;84.26
50684;BME280;36654;45.042;38.994;2023-02-19T06:13:35;100668.88;;;8.00;83.89
50684;BME280;36654;45.042;38.994;2023-02-19T06:16:05;100682.16;;;8.04;83.36
50684;BME280;36654;45.042;38.994;2023-02-19T06:18:31;100660.03;;;7.98;83.02
50684;BME280;36654;45.042;38.994;2023-02-19T06:21:15;100669.00;;;8.05;82.62
50684;BME280;36654;45.042;38.994;2023-02-19T06:23:42;100674.31;;;8.08;82.61
50684;BME280;36654;45.042;38.994;2023-02-19T06:26:20;100672.50;;;8.06;82.53
50684;BME280;36654;45.042;38.994;2023-02-19T06:28:47;100623.03;;;7.94;82.20
50684;BME280;36654;45.042;38.994;2023-02-19T06:31:14;100659.22;;;8.01;82.27
50684;BME280;36654;45.042;38.994;2023-02-19T06:33:40;100682.44;;;8.17;82.10
50684;BME280;36654;45.042;38.994;2023-02-19T06:36:09;100669.28;;;8.20;82.36
50684;BME280;36654;45.042;38.994;2023-02-19T06:38:35;100667.47;;;8.18;82.06
50684;BME280;36654;45.042;38.994;2023-02-19T06:41:02;100650.00;;;8.25;81.85
50684;BME280;36654;45.042;38.994;2023-02-19T06:43:28;100671.34;;;8.35;82.07
50684;BME280;36654;45.042;38.994;2023-02-19T06:45:57;100675.88;;;8.39;81.82
50684;BME280;36654;45.042;38.994;2023-02-19T06:48:24;100649.44;;;8.39;81.28
50684;BME280;36654;45.042;38.994;2023-02-19T06:50:49;100663.41;;;8.35;80.96
50684;BME280;36654;45.042;38.994;2023-02-19T06:53:15;100689.81;;;8.35;80.96
50684;BME280;36654;45.042;38.994;2023-02-19T06:55:41;100650.09;;;8.29;81.21
50684;BME280;36654;45.042;38.994;2023-02-19T06:58:06;100648.53;;;8.39;81.10
50684;BME280;36654;45.042;38.994;2023-02-19T07:00:32;100648.38;;;8.31;81.12
50684;BME280;36654;45.042;38.994;2023-02-19T07:02:59;100638.88;;;8.39;80.88
50684;BME280;36654;45.042;38.994;2023-02-19T07:05:24;100649.22;;;8.30;80.96
50684;BME280;36654;45.042;38.994;2023-02-19T07:07:50;100662.66;;;8.41;81.06
50684;BME280;36654;45.042;38.994;2023-02-19T07:10:16;100651.34;;;8.47;80.91
50684;BME280;36654;45.042;38.994;2023-02-19T07:12:42;100684.78;;;8.45;80.68
50684;BME280;36654;45.042;38.994;2023-02-19T07:15:08;100691.81;;;8.46;80.37
50684;BME280;36654;45.042;38.994;2023-02-19T07:17:34;100659.94;;;8.36;80.67
50684;BME280;36654;45.042;38.994;2023-02-19T07:20:00;100673.31;;;8.44;80.78
50684;BME280;36654;45.042;38.994;2023-02-19T07:22:25;100673.28;;;8.42;81.02
50684;BME280;36654;45.042;38.994;2023-02-19T07:24:51;100687.50;;;8.49;80.75
50684;BME280;36654;45.042;38.994;2023-02-19T07:27:19;100674.16;;;8.41;80.58
50684;BME280;36654;45.042;38.994;2023-02-19T07:29:45;100672.34;;;8.40;81.01
50684;BME280;36654;45.042;38.994;2023-02-19T07:32:10;100663.81;;;8.54;80.87
50684;BME280;36654;45.042;38.994;2023-02-19T07:34:36;100669.16;;;8.57;80.62
50684;BME280;36654;45.042;38.994;2023-02-19T07:37:01;100676.97;;;8.52;80.43
50684;BME280;36654;45.042;38.994;2023-02-19T07:39:27;100683.31;;;8.62;80.44
50684;BME280;36654;45.042;38.994;2023-02-19T07:41:53;100689.53;;;8.66;80.63
50684;BME280;36654;45.042;38.994;2023-02-19T07:44:18;100650.81;;;8.68;80.17
50684;BME280;36654;45.042;38.994;2023-02-19T07:46:44;100665.69;;;8.61;79.80
50684;BME280;36654;45.042;38.994;2023-02-19T07:49:10;100672.59;;;8.53;79.54
50684;BME280;36654;45.042;38.994;2023-02-19T07:51:35;100686.72;;;8.55;79.69
50684;BME280;36654;45.042;38.994;2023-02-19T07:54:04;100660.25;;;8.52;79.47
50684;BME280;36654;45.042;38.994;2023-02-19T07:56:30;100675.34;;;8.59;79.34
50684;BME280;36654;45.042;38.994;2023-02-19T07:58:55;100640.78;;;8.47;78.96
50684;BME280;36654;45.042;38.994;2023-02-19T08:01:22;100685.75;;;8.50;78.89
50684;BME280;36654;45.042;38.994;2023-02-19T08:04:07;100661.91;;;8.47;78.89
50684;BME280;36654;45.042;38.994;2023-02-19T08:06:33;100679.44;;;8.43;79.01
50684;BME280;36654;45.042;38.994;2023-02-19T08:08:59;100572.13;;;8.03;78.81
50684;BME280;36654;45.042;38.994;2023-02-19T08:11:24;100680.16;;;8.36;78.70
50684;BME280;36654;45.042;38.994;2023-02-19T08:14:08;100674.25;;;8.48;78.71
50684;BME280;36654;45.042;38.994;2023-02-19T08:16:34;100668.69;;;8.35;78.72
50684;BME280;36654;45.042;38.994;2023-02-19T08:18:59;100696.00;;;8.36;78.95
50684;BME280;36654;45.042;38.994;2023-02-19T08:21:25;100687.38;;;8.43;79.34
50684;BME280;36654;45.042;38.994;2023-02-19T08:23:51;100675.00;;;8.40;78.80
50684;BME280;36654;45.042;38.994;2023-02-19T08:26:16;100672.50;;;8.48;78.49
50684;BME280;36654;45.042;38.994;2023-02-19T08:28:42;100646.06;;;8.47;78.03
50684;BME280;36654;45.042;38.994;2023-02-19T08:31:09;100677.22;;;8.64;77.89
50684;BME280;36654;45.042;38.994;2023-02-19T08:33:36;100658.53;;;8.54;77.72
50684;BME280;36654;45.042;38.994;2023-02-19T08:36:07;100672.84;;;8.68;77.66
50684;BME280;36654;45.042;38.994;2023-02-19T08:38:35;100697.97;;;8.92;76.87
50684;BME280;36654;45.042;38.994;2023-02-19T08:41:10;100675.75;;;8.82;76.42
50684;BME280;36654;45.042;38.994;2023-02-19T08:43:36;100683.25;;;9.09;76.09
50684;BME280;36654;45.042;38.994;2023-02-19T08:46:02;100688.63;;;9.15;75.16
50684;BME280;36654;45.042;38.994;2023-02-19T08:48:28;100644.53;;;9.11;74.48
50684;BME280;36654;45.042;38.994;2023-02-19T08:51:04;100669.28;;;9.18;74.75
50684;BME280;36654;45.042;38.994;2023-02-19T08:53:33;100689.84;;;9.36;74.06
50684;BME280;36654;45.042;38.994;2023-02-19T08:56:11;100633.66;;;8.96;73.43
50684;BME280;36654;45.042;38.994;2023-02-19T08:58:37;100709.97;;;9.24;73.63
50684;BME280;36654;45.042;38.994;2023-02-19T09:01:08;100716.00;;;9.17;73.82
50684;BME280;36654;45.042;38.994;2023-02-19T09:03:34;100678.75;;;9.02;74.02
50684;BME280;36654;45.042;38.994;2023-02-19T09:06:00;100701.69;;;9.06;74.25
50684;BME280;36654;45.042;38.994;2023-02-19T09:08:26;100681.16;;;8.90;74.32
50684;BME280;36654;45.042;38.994;2023-02-19T09:11:02;100697.25;;;9.02;74.34
50684;BME280;36654;45.042;38.994;2023-02-19T09:13:29;100700.72;;;9.01;74.62
50684;BME280;36654;45.042;38.994;2023-02-19T09:15:55;100688.34;;;8.97;74.66
50684;BME280;36654;45.042;38.994;2023-02-19T09:18:22;100652.09;;;8.90;74.86
50684;BME280;36654;45.042;38.994;2023-02-19T09:20:48;100676.81;;;8.92;74.75
50684;BME280;36654;45.042;38.994;2023-02-19T09:23:13;100680.38;;;8.94;74.90
50684;BME280;36654;45.042;38.994;2023-02-19T09:25:39;100654.81;;;8.94;75.33
50684;BME280;36654;45.042;38.994;2023-02-19T09:28:04;100614.66;;;8.65;75.56
50684;BME280;36654;45.042;38.994;2023-02-19T09:30:30;100650.16;;;8.81;75.64
50684;BME280;36654;45.042;38.994;2023-02-19T09:32:56;100666.16;;;8.87;75.60
50684;BME280;36654;45.042;38.994;2023-02-19T09:35:21;100645.03;;;8.89;75.81
50684;BME280;36654;45.042;38.994;2023-02-19T09:37:47;100648.56;;;8.91;75.48
50684;BME280;36654;45.042;38.994;2023-02-19T09:40:13;100654.81;;;8.94;75.05
50684;BME280;36654;45.042;38.994;2023-02-19T09:42:40;100648.72;;;9.00;74.88
50684;BME280;36654;45.042;38.994;2023-02-19T09:45:09;100633.91;;;9.10;74.43
50684;BME280;36654;45.042;38.994;2023-02-19T09:47:38;100640.22;;;9.19;73.99
50684;BME280;36654;45.042;38.994;2023-02-19T09:50:08;100628.91;;;9.29;73.78
50684;BME280;36654;45.042;38.994;2023-02-19T09:52:35;100609.63;;;9.38;73.39
50684;BME280;36654;45.042;38.994;2023-02-19T09:57:43;100618.47;;;9.40;72.97
50684;BME280;36654;45.042;38.994;2023-02-19T10:00:24;100598.19;;;9.41;73.17
50684;BME280;36654;45.042;38.994;2023-02-19T10:02:51;100564.63;;;9.38;73.33
50684;BME280;36654;45.042;38.994;2023-02-19T10:05:17;100614.88;;;9.34;73.67
50684;BME280;36654;45.042;38.994;2023-02-19T10:07:47;100588.34;;;9.29;74.22
50684;BME280;36654;45.042;38.994;2023-02-19T10:12:44;100584.84;;;9.32;74.66
50684;BME280;36654;45.042;38.994;2023-02-19T10:15:21;100569.47;;;9.06;74.57
50684;BME280;36654;45.042;38.994;2023-02-19T10:17:49;100584.75;;;9.24;75.21
50684;BME280;36654;45.042;38.994;2023-02-19T10:20:18;100591.00;;;9.31;75.25
50684;BME280;36654;45.042;38.994;2023-02-19T10:22:46;100592.75;;;9.28;75.64
50684;BME280;36654;45.042;38.994;2023-02-19T10:25:14;100535.84;;;8.96;75.69
50684;BME280;36654;45.042;38.994;2023-02-19T10:27:41;100581.09;;;9.16;75.95
50684;BME280;36654;45.042;38.994;2023-02-19T10:30:17;100604.19;;;9.27;76.00
50684;BME280;36654;45.042;38.994;2023-02-19T10:33:12;100595.38;;;9.27;76.36
50684;BME280;36654;45.042;38.994;2023-02-19T10:36:03;100589.22;;;9.29;76.86
50684;BME280;36654;45.042;38.994;2023-02-19T10:41:12;100591.78;;;9.23;76.90
50684;BME280;36654;45.042;38.994;2023-02-19T10:43:41;100592.78;;;9.32;77.12
50684;BME280;36654;45.042;38.994;2023-02-19T10:46:15;100589.31;;;9.36;77.41
50684;BME280;36654;45.042;38.994;2023-02-19T10:48:51;100591.91;;;9.33;77.33
50684;BME280;36654;45.042;38.994;2023-02-19T10:51:17;100573.50;;;9.39;77.43
50684;BME280;36654;45.042;38.994;2023-02-19T10:53:46;100595.69;;;9.48;77.02
50684;BME280;36654;45.042;38.994;2023-02-19T10:56:23;100594.00;;;9.57;77.07
50684;BME280;36654;45.042;38.994;2023-02-19T10:58:49;100558.75;;;9.59;76.50
50684;BME280;36654;45.042;38.994;2023-02-19T11:01:20;100525.88;;;9.40;76.60
50684;BME280;36654;45.042;38.994;2023-02-19T11:03:51;100542.78;;;9.53;76.34
50684;BME280;36654;45.042;38.994;2023-02-19T11:06:19;100521.78;;;9.67;76.18
50684;BME280;36654;45.042;38.994;2023-02-19T11:11:35;100568.59;;;9.69;76.22
50684;BME280;36654;45.042;38.994;2023-02-19T11:14:25;100545.59;;;9.65;76.31
50684;BME280;36654;45.042;38.994;2023-02-19T11:16:55;100573.91;;;9.72;76.52
50684;BME280;36654;45.042;38.994;2023-02-19T11:21:53;100542.25;;;9.82;76.06
50684;BME280;36654;45.042;38.994;2023-02-19T11:24:37;100492.88;;;9.87;75.96
50684;BME280;36654;45.042;38.994;2023-02-19T11:27:06;100540.53;;;9.87;75.78
50684;BME280;36654;45.042;38.994;2023-02-19T11:29:43;100551.16;;;9.88;76.08
50684;BME280;36654;45.042;38.994;2023-02-19T11:32:26;100533.50;;;9.89;76.31
50684;BME280;36654;45.042;38.994;2023-02-19T11:35:16;100522.06;;;9.91;76.01
50684;BME280;36654;45.042;38.994;2023-02-19T11:37:58;100542.28;;;9.85;75.93
50684;BME280;36654;45.042;38.994;2023-02-19T11:40:49;100532.50;;;9.81;75.93
50684;BME280;36654;45.042;38.994;2023-02-19T11:46:10;100523.63;;;9.74;76.06
50684;BME280;36654;45.042;38.994;2023-02-19T11:49:16;100550.88;;;9.65;76.09
50684;BME280;36654;45.042;38.994;2023-02-19T12:00:25;100556.66;;;9.35;78.46
50684;BME280;36654;45.042;38.994;2023-02-19T12:02:59;100556.59;;;9.31;79.13
50684;BME280;36654;45.042;38.994;2023-02-19T12:06:22;100567.09;;;9.23;80.01
50684;BME280;36654;45.042;38.994;2023-02-19T12:09:08;100557.31;;;9.17;80.46
50684;BME280;36654;45.042;38.994;2023-02-19T12:14:38;100563.41;;;9.13;81.21
50684;BME280;36654;45.042;38.994;2023-02-19T12:17:45;100534.03;;;8.92;81.38
50684;BME280;36654;45.042;38.994;2023-02-19T12:20:34;100556.41;;;9.14;81.45
50684;BME280;36654;45.042;38.994;2023-02-19T12:23:46;100560.81;;;9.15;81.64
50684;BME280;36654;45.042;38.994;2023-02-19T12:29:12;100574.88;;;9.12;81.90
50684;BME280;36654;45.042;38.994;2023-02-19T12:34:50;100569.63;;;9.15;82.25
50684;BME280;36654;45.042;38.994;2023-02-19T12:37:40;100596.06;;;9.14;82.12
50684;BME280;36654;45.042;38.994;2023-02-19T12:43:42;100583.72;;;9.14;82.61
50684;BME280;36654;45.042;38.994;2023-02-19T12:45:51;100607.53;;;9.16;82.36
50684;BME280;36654;45.042;38.994;2023-02-19T12:50:48;100601.34;;;9.15;82.35
50684;BME280;36654;45.042;38.994;2023-02-19T12:55:59;100611.06;;;9.15;82.64
50684;BME280;36654;45.042;38.994;2023-02-19T12:58:32;100605.69;;;9.10;82.39
50684;BME280;36654;45.042;38.994;2023-02-19T13:00:59;100619.81;;;9.11;82.41
50684;BME280;36654;45.042;38.994;2023-02-19T13:03:50;100611.94;;;9.14;82.60
50684;BME280;36654;45.042;38.994;2023-02-19T13:06:39;100622.47;;;9.12;82.48
50684;BME280;36654;45.042;38.994;2023-02-19T13:09:22;100609.09;;;9.03;82.88
50684;BME280;36654;45.042;38.994;2023-02-19T13:12:08;100605.69;;;9.09;83.11
50684;BME280;36654;45.042;38.994;2023-02-19T13:14:48;100617.03;;;9.01;83.58
50684;BME280;36654;45.042;38.994;2023-02-19T13:17:37;100592.94;;;8.83;83.77
50684;BME280;36654;45.042;38.994;2023-02-19T13:32:11;100588.44;;;8.77;85.15
50684;BME280;36654;45.042;38.994;2023-02-19T13:37:45;100529.03;;;8.52;84.79
50684;BME280;36654;45.042;38.994;2023-02-19T13:40:33;100592.84;;;8.78;84.30
50684;BME280;36654;45.042;38.994;2023-02-19T13:43:02;100573.38;;;8.73;84.08
50684;BME280;36654;45.042;38.994;2023-02-19T13:45:40;100570.81;;;8.76;83.68
50684;BME280;36654;45.042;38.994;2023-02-19T13:50:39;100577.91;;;8.80;83.51
50684;BME280;36654;45.042;38.994;2023-02-19T14:04:40;100571.72;;;8.78;83.22
50684;BME280;36654;45.042;38.994;2023-02-19T14:14:43;100601.69;;;8.79;82.19
50684;BME280;36654;45.042;38.994;2023-02-19T14:19:59;100596.41;;;8.79;81.81
50684;BME280;36654;45.042;38.994;2023-02-19T14:25:26;100584.94;;;8.78;81.60
50684;BME280;36654;45.042;38.994;2023-02-19T14:30:59;100588.44;;;8.77;81.05
50684;BME280;36654;45.042;38.994;2023-02-19T14:33:31;100592.81;;;8.75;81.02
50684;BME280;36654;45.042;38.994;2023-02-19T14:38:43;100597.19;;;8.73;80.87
50684;BME280;36654;45.042;38.994;2023-02-19T14:41:11;100565.22;;;8.58;80.84
50684;BME280;36654;45.042;38.994;2023-02-19T14:43:37;100591.81;;;8.67;80.56
50684;BME280;36654;45.042;38.994;2023-02-19T14:46:40;100543.72;;;8.36;80.65
50684;BME280;36654;45.042;38.994;2023-02-19T14:51:47;100607.75;;;8.73;80.70
50684;BME280;36654;45.042;38.994;2023-02-19T14:54:20;100551.72;;;8.41;80.63
50684;BME280;36654;45.042;38.994;2023-02-19T14:56:52;100613.00;;;8.70;80.70
50684;BME280;36654;45.042;38.994;2023-02-19T15:01:44;100590.13;;;8.72;81.01
50684;BME280;36654;45.042;38.994;2023-02-19T15:04:21;100578.69;;;8.73;80.91
50684;BME280;36654;45.042;38.994;2023-02-19T15:06:47;100591.84;;;8.70;81.29
50684;BME280;36654;45.042;38.994;2023-02-19T15:09:15;100573.19;;;8.59;81.13